Time;durP1;ratioP1;P1;durP2;ratioP2;P2;SDS_P1;SDS_P2;PMS_P1;PMS_P2;Temp;Humidity;BMP_temperature;BMP_pressure;BME280_temperature;BME280_humidity;BME280_pressure;Samples;Min_cycle;Max_cycle;Signal;HPM_P1;HPM_P2
2023/06/20 00:00:36;;;;;;;12.43;6.40;;;19.70;99.90;;;;;;5016626;28;20243;-57
2023/06/20 00:03:03;;;;;;;10.27;6.23;;;19.60;99.90;;;;;;5020704;28;20674;-55
2023/06/20 00:05:28;;;;;;;10.03;7.10;;;19.60;99.90;;;;;;5020195;28;20207;-56
2023/06/20 00:07:54;;;;;;;9.90;6.73;;;19.50;99.90;;;;;;5013871;28;20423;-57
2023/06/20 00:10:20;;;;;;;8.43;6.47;;;19.50;99.90;;;;;;5018646;28;20195;-55
2023/06/20 00:12:46;;;;;;;11.43;7.10;;;19.40;99.90;;;;;;5018235;28;20191;-55
2023/06/20 00:15:12;;;;;;;8.10;6.37;;;19.30;99.90;;;;;;5020177;28;20503;-57
2023/06/20 00:17:38;;;;;;;11.83;6.67;;;19.30;99.90;;;;;;5020319;28;20445;-55
2023/06/20 00:20:05;;;;;;;9.33;6.20;;;19.20;99.90;;;;;;5024282;28;20195;-55
2023/06/20 00:22:34;;;;;;;11.60;7.20;;;19.20;99.90;;;;;;5017059;28;20430;-55
2023/06/20 00:25:04;;;;;;;15.17;7.13;;;19.10;99.90;;;;;;5020939;28;20478;-54
2023/06/20 00:27:30;;;;;;;12.20;6.77;;;19.10;99.90;;;;;;5019621;28;20508;-56
2023/06/20 00:29:56;;;;;;;9.17;6.33;;;19.10;99.90;;;;;;5020922;28;20435;-55
2023/06/20 00:32:21;;;;;;;10.70;6.27;;;19.10;99.90;;;;;;5019065;28;20435;-54
2023/06/20 00:34:47;;;;;;;13.30;6.63;;;19.00;99.90;;;;;;5022302;28;20175;-56
2023/06/20 00:37:12;;;;;;;9.50;6.60;;;19.00;99.90;;;;;;5018971;28;20264;-55
2023/06/20 00:39:38;;;;;;;10.43;5.93;;;19.00;99.90;;;;;;5021159;28;20695;-56
2023/06/20 00:42:05;;;;;;;12.23;7.27;;;19.00;99.90;;;;;;5022229;28;20207;-54
2023/06/20 00:44:30;;;;;;;14.13;7.10;;;19.00;99.90;;;;;;5019574;28;20177;-53
2023/06/20 00:46:57;;;;;;;9.83;6.13;;;19.00;99.90;;;;;;5018361;28;21273;-56
2023/06/20 00:49:22;;;;;;;12.87;7.00;;;19.00;99.90;;;;;;5020751;28;20183;-55
2023/06/20 00:51:49;;;;;;;6.83;5.53;;;19.00;99.90;;;;;;5024313;28;20782;-54
2023/06/20 00:54:15;;;;;;;11.67;6.50;;;19.00;99.90;;;;;;5024068;28;20227;-54
2023/06/20 00:56:42;;;;;;;10.07;5.67;;;19.00;99.90;;;;;;5021204;28;20957;-56
2023/06/20 00:59:07;;;;;;;12.43;6.20;;;18.90;99.90;;;;;;5020323;28;20184;-54
2023/06/20 01:01:33;;;;;;;9.07;5.90;;;18.90;99.90;;;;;;5026362;28;20429;-53
2023/06/20 01:04:00;;;;;;;10.90;6.57;;;18.90;99.90;;;;;;5022952;28;20172;-55
2023/06/20 01:06:46;;;;;;;11.90;5.90;;;18.90;99.90;;;;;;5024260;28;20919;-55
2023/06/20 01:09:31;;;;;;;9.77;5.93;;;18.90;99.90;;;;;;5026669;28;20422;-53
2023/06/20 01:12:08;;;;;;;18.27;5.33;;;18.90;99.90;;;;;;5024004;28;20434;-55
2023/06/20 01:14:37;;;;;;;9.20;6.10;;;18.90;99.90;;;;;;5022667;28;20438;-53
2023/06/20 01:17:05;;;;;;;10.83;6.17;;;18.90;99.90;;;;;;5018383;28;20470;-54
2023/06/20 01:19:47;;;;;;;10.10;6.13;;;18.90;99.90;;;;;;5022590;28;20931;-57
2023/06/20 01:22:45;;;;;;;13.03;6.60;;;18.90;99.90;;;;;;5021123;28;20465;-55
2023/06/20 01:25:32;;;;;;;9.50;5.60;;;18.90;99.90;;;;;;5017942;28;20442;-57
2023/06/20 01:28:16;;;;;;;10.97;5.83;;;18.80;99.90;;;;;;5021698;28;20450;-52
2023/06/20 01:31:03;;;;;;;10.33;5.30;;;18.80;99.90;;;;;;5020733;28;20435;-55
2023/06/20 01:33:34;;;;;;;8.73;5.67;;;18.80;99.90;;;;;;5018717;28;20434;-56
2023/06/20 01:36:01;;;;;;;14.97;6.13;;;18.80;99.90;;;;;;5018725;28;20470;-55
2023/06/20 01:38:30;;;;;;;12.70;6.37;;;18.80;99.90;;;;;;5019473;28;20446;-54
2023/06/20 01:40:58;;;;;;;10.20;5.83;;;18.80;99.90;;;;;;5021975;28;20430;-54
2023/06/20 01:43:25;;;;;;;8.97;6.30;;;18.80;99.90;;;;;;5022908;28;20438;-56
2023/06/20 01:45:53;;;;;;;15.30;7.17;;;18.70;99.90;;;;;;5021195;28;20484;-53
2023/06/20 01:48:19;;;;;;;10.27;6.40;;;18.70;99.90;;;;;;5021534;28;20430;-54
2023/06/20 01:50:47;;;;;;;14.50;7.03;;;18.70;99.90;;;;;;5017538;28;20437;-54
2023/06/20 01:53:14;;;;;;;8.50;6.10;;;18.60;99.90;;;;;;5018073;28;22111;-56
2023/06/20 01:55:41;;;;;;;13.73;6.50;;;18.60;99.90;;;;;;5019486;28;20483;-56
2023/06/20 01:58:09;;;;;;;11.90;6.27;;;18.60;99.90;;;;;;5019615;28;20791;-55
2023/06/20 02:00:36;;;;;;;14.73;6.20;;;18.60;99.90;;;;;;5022766;28;20485;-55
2023/06/20 02:03:05;;;;;;;14.03;6.50;;;18.50;99.90;;;;;;5014693;28;20438;-55
2023/06/20 02:05:32;;;;;;;12.93;6.50;;;18.50;99.90;;;;;;5018753;28;20450;-55
2023/06/20 02:07:58;;;;;;;10.60;6.57;;;18.50;99.90;;;;;;5021733;28;20431;-56
2023/06/20 02:10:25;;;;;;;12.67;6.17;;;18.50;99.90;;;;;;5021954;28;20802;-56
2023/06/20 02:12:54;;;;;;;10.67;6.37;;;18.50;99.90;;;;;;5020469;28;20435;-56
2023/06/20 02:15:21;;;;;;;10.47;6.67;;;18.50;99.90;;;;;;5024950;28;20545;-56
2023/06/20 02:17:48;;;;;;;7.07;5.73;;;18.50;99.90;;;;;;5021516;28;20490;-55
2023/06/20 02:20:14;;;;;;;6.90;5.80;;;18.50;99.90;;;;;;5022088;28;20431;-56
2023/06/20 02:22:44;;;;;;;11.40;5.90;;;18.50;99.90;;;;;;5025271;28;20449;-55
2023/06/20 02:25:17;;;;;;;11.10;6.17;;;18.40;99.90;;;;;;5025392;28;20426;-55
2023/06/20 02:27:43;;;;;;;10.30;6.20;;;18.40;99.90;;;;;;5024239;28;20545;-57
2023/06/20 02:30:10;;;;;;;10.67;6.40;;;18.40;99.90;;;;;;5027305;28;20830;-56
2023/06/20 02:32:40;;;;;;;17.17;7.30;;;18.40;99.90;;;;;;5026917;28;20172;-55
2023/06/20 02:35:08;;;;;;;9.80;6.20;;;18.40;99.90;;;;;;5023584;28;20596;-56
2023/06/20 02:37:34;;;;;;;9.97;7.03;;;18.40;99.90;;;;;;5027827;28;21570;-54
2023/06/20 02:40:00;;;;;;;10.03;6.47;;;18.40;99.90;;;;;;5021916;28;20453;-57
2023/06/20 02:42:26;;;;;;;11.07;6.90;;;18.40;99.90;;;;;;5024093;28;20426;-57
2023/06/20 02:44:51;;;;;;;8.67;6.70;;;18.40;99.90;;;;;;5028595;28;20176;-54
2023/06/20 02:47:38;;;;;;;12.23;7.13;;;18.40;99.90;;;;;;5028336;28;20266;-53
2023/06/20 02:50:15;;;;;;;13.73;6.23;;;18.50;99.90;;;;;;5021512;28;20600;-57
2023/06/20 02:52:46;;;;;;;8.50;5.57;;;18.50;99.90;;;;;;5021772;28;20421;-56
2023/06/20 02:55:44;;;;;;;11.23;5.70;;;18.50;99.90;;;;;;5024001;28;21112;-52
2023/06/20 02:58:15;;;;;;;8.07;5.37;;;18.40;99.90;;;;;;5023395;28;20434;-55
2023/06/20 03:00:48;;;;;;;9.00;6.10;;;18.40;99.90;;;;;;5025071;28;20485;-55
2023/06/20 03:03:37;;;;;;;8.23;5.80;;;18.40;99.90;;;;;;5025081;28;20438;-55
2023/06/20 03:06:06;;;;;;;8.93;5.80;;;18.40;99.90;;;;;;5031490;28;20505;-55
2023/06/20 03:08:33;;;;;;;9.20;6.40;;;18.40;99.90;;;;;;5024960;28;20477;-56
2023/06/20 03:11:00;;;;;;;9.83;6.13;;;18.40;99.90;;;;;;5018777;28;20438;-55
2023/06/20 03:13:27;;;;;;;15.33;5.80;;;18.40;99.90;;;;;;5019950;28;20438;-56
2023/06/20 03:15:55;;;;;;;10.93;6.03;;;18.40;99.90;;;;;;5023282;28;20470;-56
2023/06/20 03:18:20;;;;;;;8.00;5.60;;;18.40;99.90;;;;;;5023857;28;20484;-54
2023/06/20 03:20:48;;;;;;;10.57;6.80;;;18.40;99.90;;;;;;5026289;28;20430;-54
2023/06/20 03:23:14;;;;;;;7.40;5.70;;;18.40;99.90;;;;;;5027835;28;20188;-57
2023/06/20 03:25:40;;;;;;;7.77;5.80;;;18.40;99.90;;;;;;5027297;28;20458;-57
2023/06/20 03:28:06;;;;;;;8.10;4.50;;;18.40;99.90;;;;;;5020469;28;20438;-55
2023/06/20 03:30:32;;;;;;;6.80;4.70;;;18.40;99.90;;;;;;5024821;28;20930;-53
2023/06/20 03:32:57;;;;;;;5.70;4.50;;;18.40;99.90;;;;;;5024762;28;20184;-55
2023/06/20 03:35:23;;;;;;;6.20;4.20;;;18.40;99.90;;;;;;5025870;28;20199;-56
2023/06/20 03:37:49;;;;;;;7.53;4.30;;;18.40;99.90;;;;;;5022070;28;20233;-54
2023/06/20 03:40:14;;;;;;;6.30;4.30;;;18.30;99.90;;;;;;5025341;28;20664;-56
2023/06/20 03:42:41;;;;;;;4.90;4.40;;;18.30;99.90;;;;;;5027889;28;20258;-56
2023/06/20 03:45:07;;;;;;;9.73;4.40;;;18.30;99.90;;;;;;5021383;28;20262;-57
2023/06/20 03:47:33;;;;;;;4.80;4.30;;;18.30;99.90;;;;;;5023180;28;21066;-54
2023/06/20 03:49:58;;;;;;;9.87;4.60;;;18.20;99.90;;;;;;5025560;28;20463;-57
2023/06/20 03:52:24;;;;;;;7.90;5.60;;;18.30;99.90;;;;;;5022230;28;20195;-56
2023/06/20 03:54:50;;;;;;;13.30;6.07;;;18.30;99.90;;;;;;5018230;28;20254;-56
2023/06/20 03:57:15;;;;;;;10.20;5.87;;;18.20;99.90;;;;;;5018678;28;20581;-57
2023/06/20 03:59:41;;;;;;;7.20;6.00;;;18.20;99.90;;;;;;5024508;28;20336;-55
2023/06/20 04:02:07;;;;;;;6.17;5.53;;;18.20;99.90;;;;;;5024819;28;20173;-57
2023/06/20 04:04:32;;;;;;;9.63;6.77;;;18.30;99.90;;;;;;5017932;28;21553;-52
2023/06/20 04:06:58;;;;;;;11.53;6.63;;;18.30;99.90;;;;;;5011401;28;20277;-54
2023/06/20 04:09:27;;;;;;;9.00;6.90;;;18.30;99.90;;;;;;5021686;28;20183;-57
2023/06/20 04:11:54;;;;;;;13.60;7.40;;;18.30;99.90;;;;;;5022079;28;20186;-57
2023/06/20 04:14:20;;;;;;;7.73;6.77;;;18.30;99.90;;;;;;5027753;28;20432;-58
2023/06/20 04:16:47;;;;;;;12.83;8.93;;;18.30;99.90;;;;;;5014579;28;20474;-57
2023/06/20 04:19:14;;;;;;;9.60;8.60;;;18.30;99.90;;;;;;5020434;28;20183;-56
2023/06/20 04:21:40;;;;;;;16.63;10.20;;;18.40;99.90;;;;;;5018609;28;20529;-55
2023/06/20 04:24:05;;;;;;;16.27;10.40;;;18.40;99.90;;;;;;5018220;28;21117;-56
2023/06/20 04:26:31;;;;;;;19.23;10.07;;;18.50;99.90;;;;;;5020294;28;21988;-54
2023/06/20 04:28:57;;;;;;;14.17;10.20;;;18.50;99.90;;;;;;5012379;28;20769;-57
2023/06/20 04:31:24;;;;;;;12.30;10.80;;;18.50;99.90;;;;;;5008708;28;20185;-57
2023/06/20 04:33:49;;;;;;;14.20;10.30;;;18.60;99.90;;;;;;5017618;28;20441;-56
2023/06/20 04:36:15;;;;;;;12.70;11.30;;;18.60;99.90;;;;;;5021978;28;20463;-56
2023/06/20 04:38:42;;;;;;;15.40;11.40;;;18.60;99.90;;;;;;5015692;28;20183;-58
2023/06/20 04:41:08;;;;;;;17.33;12.07;;;18.60;99.90;;;;;;5014762;28;20184;-58
2023/06/20 04:43:34;;;;;;;18.53;12.20;;;18.60;99.90;;;;;;5016750;28;20431;-55
2023/06/20 04:46:00;;;;;;;17.90;12.17;;;18.60;99.90;;;;;;5015922;28;20926;-57
2023/06/20 04:48:29;;;;;;;14.20;12.00;;;18.70;99.90;;;;;;5021676;28;20434;-56
2023/06/20 04:50:55;;;;;;;18.63;13.17;;;18.70;99.90;;;;;;5015714;28;20195;-56
2023/06/20 04:53:26;;;;;;;18.20;14.13;;;18.80;99.90;;;;;;5011151;28;20465;-58
2023/06/20 04:55:52;;;;;;;17.70;14.27;;;18.80;99.90;;;;;;5023321;28;20527;-56
2023/06/20 04:58:18;;;;;;;19.43;13.97;;;19.00;99.90;;;;;;5023288;28;20437;-54
2023/06/20 05:00:43;;;;;;;16.10;11.97;;;19.10;99.90;;;;;;5019055;28;20436;-56
2023/06/20 05:03:09;;;;;;;18.23;12.67;;;19.10;99.90;;;;;;5007984;28;20629;-57
2023/06/20 05:05:35;;;;;;;17.57;12.90;;;19.10;99.90;;;;;;5010287;28;20840;-56
2023/06/20 05:08:01;;;;;;;14.83;12.20;;;19.20;99.90;;;;;;5026233;28;20208;-54
2023/06/20 05:10:26;;;;;;;14.07;11.60;;;19.20;99.90;;;;;;4991498;28;20183;-55
2023/06/20 05:12:52;;;;;;;14.27;11.63;;;19.10;99.90;;;;;;5033065;28;20211;-56
2023/06/20 05:15:23;;;;;;;15.93;11.07;;;19.10;99.90;;;;;;5022538;28;20203;-51
2023/06/20 05:17:52;;;;;;;19.53;11.03;;;19.10;99.90;;;;;;5024477;28;20180;-56
2023/06/20 05:20:19;;;;;;;14.07;11.63;;;19.10;99.90;;;;;;5024894;28;20760;-53
2023/06/20 05:22:45;;;;;;;14.00;10.77;;;19.00;99.90;;;;;;5029273;28;20418;-56
2023/06/20 05:25:11;;;;;;;17.43;11.37;;;19.00;99.90;;;;;;5013875;28;20441;-55
2023/06/20 05:27:36;;;;;;;17.60;11.53;;;19.00;99.90;;;;;;5025212;28;20792;-56
2023/06/20 05:30:03;;;;;;;17.77;11.73;;;19.00;99.90;;;;;;5018540;28;20187;-55
2023/06/20 05:32:28;;;;;;;14.27;10.03;;;19.10;99.90;;;;;;5025584;28;20176;-55
2023/06/20 05:34:54;;;;;;;15.83;10.50;;;19.20;99.90;;;;;;5024082;28;20440;-56
2023/06/20 05:37:19;;;;;;;16.40;11.70;;;19.20;99.90;;;;;;5019086;28;20253;-56
2023/06/20 05:39:45;;;;;;;11.87;9.93;;;19.30;99.90;;;;;;5018372;28;20186;-57
2023/06/20 05:42:11;;;;;;;12.57;9.90;;;19.30;99.90;;;;;;5023249;28;20179;-56
2023/06/20 05:44:37;;;;;;;12.73;10.03;;;19.30;99.90;;;;;;5023425;28;20179;-55
2023/06/20 05:47:06;;;;;;;14.57;10.60;;;19.30;99.90;;;;;;5020987;28;20247;-55
2023/06/20 05:49:32;;;;;;;17.03;9.60;;;19.30;99.90;;;;;;5017790;28;20195;-54
2023/06/20 05:51:58;;;;;;;16.07;10.17;;;19.30;99.90;;;;;;5017748;28;20968;-55
2023/06/20 05:54:25;;;;;;;13.73;10.20;;;19.30;99.90;;;;;;5015978;28;20516;-56
2023/06/20 05:56:51;;;;;;;12.83;8.87;;;19.40;99.90;;;;;;5021476;28;20512;-55
2023/06/20 05:59:17;;;;;;;11.23;9.07;;;19.50;99.90;;;;;;5024609;28;20958;-56
2023/06/20 06:01:44;;;;;;;12.93;10.33;;;19.50;99.90;;;;;;5030265;28;20434;-55
2023/06/20 06:04:10;;;;;;;15.27;9.27;;;19.60;99.90;;;;;;5029922;28;20512;-56
2023/06/20 06:06:36;;;;;;;13.93;10.40;;;19.60;99.90;;;;;;5031916;28;20465;-55
2023/06/20 06:09:03;;;;;;;15.23;10.23;;;19.70;99.90;;;;;;5026580;28;20430;-55
2023/06/20 06:11:28;;;;;;;12.60;9.00;;;19.80;99.90;;;;;;5034576;28;20939;-53
2023/06/20 06:13:54;;;;;;;12.10;8.93;;;19.80;99.90;;;;;;5032797;28;20453;-58
2023/06/20 06:16:20;;;;;;;14.07;9.70;;;19.90;99.90;;;;;;5031931;28;20345;-56
2023/06/20 06:18:45;;;;;;;11.83;8.60;;;19.90;99.90;;;;;;5032357;28;20179;-55
2023/06/20 06:21:11;;;;;;;12.40;8.80;;;20.00;99.90;;;;;;5032396;28;20175;-55
2023/06/20 06:23:37;;;;;;;11.90;9.40;;;20.00;99.90;;;;;;5030575;28;20251;-55
2023/06/20 06:26:04;;;;;;;11.57;8.37;;;20.00;99.90;;;;;;5033337;28;20273;-52
2023/06/20 06:28:30;;;;;;;12.50;8.63;;;20.00;99.90;;;;;;5034636;28;20802;-52
2023/06/20 06:30:59;;;;;;;12.50;8.60;;;19.90;99.90;;;;;;5031910;28;20442;-55
2023/06/20 06:33:27;;;;;;;20.00;8.70;;;19.90;99.90;;;;;;5030508;28;20457;-57
2023/06/20 06:35:55;;;;;;;13.17;8.43;;;20.00;99.90;;;;;;5031868;28;20898;-56
2023/06/20 06:38:21;;;;;;;10.40;7.03;;;20.00;99.90;;;;;;5025183;28;20795;-57
2023/06/20 06:40:47;;;;;;;13.90;8.00;;;20.00;99.90;;;;;;5026612;28;20426;-53
2023/06/20 06:43:12;;;;;;;15.97;9.13;;;20.00;99.90;;;;;;5031848;28;20429;-56
2023/06/20 06:45:38;;;;;;;11.00;8.00;;;20.10;99.90;;;;;;5027131;28;20266;-57
2023/06/20 06:48:05;;;;;;;12.50;7.97;;;20.20;99.90;;;;;;5028960;28;20235;-56
2023/06/20 06:50:30;;;;;;;12.27;8.30;;;20.30;99.90;;;;;;5032112;28;20449;-54
2023/06/20 06:52:56;;;;;;;10.33;8.00;;;20.40;99.90;;;;;;5025504;28;20218;-55
2023/06/20 06:55:22;;;;;;;12.20;7.30;;;20.40;99.90;;;;;;5028726;28;20243;-56
2023/06/20 06:57:47;;;;;;;12.83;8.37;;;20.50;99.90;;;;;;5034298;28;20193;-52
2023/06/20 07:00:14;;;;;;;11.50;7.57;;;20.50;99.90;;;;;;5028312;28;20172;-56
2023/06/20 07:02:41;;;;;;;16.63;8.90;;;20.50;99.90;;;;;;5029198;28;20182;-53
2023/06/20 07:05:07;;;;;;;11.30;7.90;;;20.60;99.90;;;;;;5029294;28;20430;-56
2023/06/20 07:07:33;;;;;;;13.87;7.67;;;20.60;99.90;;;;;;5030918;28;20515;-55
2023/06/20 07:09:58;;;;;;;13.27;7.67;;;20.60;99.90;;;;;;5030398;28;20435;-57
2023/06/20 07:12:24;;;;;;;9.70;7.30;;;20.60;99.90;;;;;;5023249;28;20209;-57
2023/06/20 07:14:52;;;;;;;12.67;7.03;;;20.70;99.90;;;;;;5027977;28;20188;-56
2023/06/20 07:17:17;;;;;;;11.07;7.30;;;20.70;99.90;;;;;;5029663;28;20219;-54
2023/06/20 07:19:43;;;;;;;9.80;6.50;;;20.70;99.90;;;;;;5026444;28;20448;-56
2023/06/20 07:22:09;;;;;;;14.70;8.10;;;20.70;99.90;;;;;;5024693;28;20176;-57
2023/06/20 07:24:35;;;;;;;16.70;7.90;;;20.70;99.90;;;;;;5025333;28;20493;-56
2023/06/20 07:27:00;;;;;;;13.10;7.37;;;20.70;99.90;;;;;;5027027;28;20199;-54
2023/06/20 07:29:26;;;;;;;10.67;7.43;;;20.70;99.90;;;;;;5023344;28;20184;-56
2023/06/20 07:31:51;;;;;;;20.97;7.83;;;20.70;99.90;;;;;;5029028;28;20191;-56
2023/06/20 07:34:17;;;;;;;9.77;6.87;;;20.80;99.90;;;;;;5021894;28;20188;-55
2023/06/20 07:36:43;;;;;;;14.00;7.23;;;20.90;99.90;;;;;;5015409;28;20760;-56
2023/06/20 07:39:08;;;;;;;15.13;7.33;;;20.90;99.90;;;;;;5024908;28;20274;-56
2023/06/20 07:41:34;;;;;;;10.30;7.50;;;21.00;99.90;;;;;;5027256;28;20625;-56
2023/06/20 07:44:00;;;;;;;15.13;7.57;;;21.10;99.90;;;;;;5022961;28;20180;-57
2023/06/20 07:46:26;;;;;;;12.10;7.23;;;21.20;99.90;;;;;;5023784;28;20318;-56
2023/06/20 07:48:51;;;;;;;11.80;8.27;;;21.30;99.90;;;;;;5011861;28;20184;-54
2023/06/20 07:51:17;;;;;;;11.13;7.80;;;21.40;99.90;;;;;;5023481;28;20267;-55
2023/06/20 07:53:42;;;;;;;11.07;7.03;;;21.50;99.90;;;;;;5016682;28;20450;-57
2023/06/20 07:56:08;;;;;;;12.77;7.30;;;21.70;99.90;;;;;;5026102;28;20220;-57
2023/06/20 07:58:33;;;;;;;12.13;7.77;;;21.80;99.90;;;;;;5023213;28;20180;-54
2023/06/20 08:01:00;;;;;;;12.13;7.40;;;21.90;99.90;;;;;;5018636;28;20241;-56
2023/06/20 08:03:26;;;;;;;10.60;6.77;;;22.00;99.90;;;;;;5025429;28;20191;-56
2023/06/20 08:05:52;;;;;;;19.80;7.30;;;22.10;99.90;;;;;;5030310;28;20434;-55
2023/06/20 08:08:18;;;;;;;11.40;6.53;;;22.20;99.90;;;;;;5029986;28;20434;-54
2023/06/20 08:10:44;;;;;;;10.83;7.13;;;22.20;99.90;;;;;;5030074;28;20196;-56
2023/06/20 08:13:09;;;;;;;9.83;5.50;;;22.30;99.90;;;;;;5022676;28;20453;-57
2023/06/20 08:15:35;;;;;;;13.93;6.67;;;22.40;99.90;;;;;;5030412;28;20207;-56
2023/06/20 08:18:01;;;;;;;9.63;5.70;;;22.40;99.90;;;;;;5018008;28;20211;-53
2023/06/20 08:20:27;;;;;;;11.23;5.60;;;22.50;99.90;;;;;;5024998;28;20649;-56
2023/06/20 08:22:52;;;;;;;13.43;6.20;;;22.60;99.90;;;;;;5018548;28;20191;-57
2023/06/20 08:25:18;;;;;;;13.60;6.53;;;22.70;99.90;;;;;;5020481;28;20439;-54
2023/06/20 08:27:44;;;;;;;12.40;6.70;;;22.80;99.90;;;;;;5020863;28;20242;-59
2023/06/20 08:30:11;;;;;;;8.23;6.47;;;22.90;99.90;;;;;;5013561;28;20180;-55
2023/06/20 08:32:39;;;;;;;10.90;6.40;;;22.90;99.90;;;;;;5025755;28;20180;-56
2023/06/20 08:35:06;;;;;;;13.63;7.97;;;22.80;99.90;;;;;;5027724;28;20457;-56
2023/06/20 08:37:32;;;;;;;8.97;6.33;;;22.80;99.90;;;;;;5022341;28;20474;-53
2023/06/20 08:39:57;;;;;;;10.90;6.37;;;22.90;99.90;;;;;;5025367;28;20423;-56
2023/06/20 08:42:23;;;;;;;13.57;6.23;;;23.00;99.90;;;;;;5025765;28;20415;-56
2023/06/20 08:44:50;;;;;;;10.10;6.50;;;23.10;99.90;;;;;;5026149;28;20308;-55
2023/06/20 08:47:15;;;;;;;10.63;5.60;;;23.20;99.90;;;;;;5024306;28;20207;-53
2023/06/20 08:49:41;;;;;;;9.47;5.77;;;23.40;99.90;;;;;;5015377;28;20457;-57
2023/06/20 08:52:13;;;;;;;8.77;5.70;;;23.60;99.90;;;;;;5015727;28;20269;-56
2023/06/20 08:54:41;;;;;;;11.13;5.73;;;23.70;99.90;;;;;;5020221;28;20633;-54
2023/06/20 08:57:07;;;;;;;10.03;6.33;;;23.80;99.90;;;;;;5025040;28;20558;-54
2023/06/20 08:59:36;;;;;;;8.50;5.90;;;23.80;99.90;;;;;;5023471;28;20513;-53
2023/06/20 09:02:03;;;;;;;10.10;5.90;;;23.80;99.90;;;;;;5025309;28;20190;-55
2023/06/20 09:04:29;;;;;;;9.10;5.90;;;23.90;99.90;;;;;;5026126;28;20438;-58
2023/06/20 09:06:54;;;;;;;10.70;5.80;;;24.00;99.90;;;;;;5027205;28;20458;-56
2023/06/20 09:09:21;;;;;;;8.10;4.83;;;24.10;99.90;;;;;;5025902;28;20200;-57
2023/06/20 09:11:49;;;;;;;11.83;6.00;;;24.10;98.70;;;;;;5020941;28;20211;-53
2023/06/20 09:14:15;;;;;;;10.07;5.00;;;24.10;99.30;;;;;;5026133;28;21017;-58
2023/06/20 09:16:42;;;;;;;13.83;7.10;;;24.20;99.90;;;;;;5020909;28;20476;-55
2023/06/20 09:19:08;;;;;;;10.97;5.87;;;24.40;99.90;;;;;;5024727;28;20430;-57
2023/06/20 09:21:37;;;;;;;11.50;6.50;;;24.50;97.00;;;;;;5027405;28;20456;-57
2023/06/20 09:24:06;;;;;;;11.90;5.40;;;24.50;92.80;;;;;;5026603;28;20972;-53
2023/06/20 09:26:32;;;;;;;8.73;5.90;;;24.60;87.10;;;;;;5022376;28;20454;-57
2023/06/20 09:29:06;;;;;;;12.23;5.63;;;24.70;86.50;;;;;;5021821;28;20525;-58
2023/06/20 09:31:48;;;;;;;9.50;5.90;;;24.90;89.10;;;;;;5024511;28;20443;-53
2023/06/20 09:34:20;;;;;;;11.93;5.40;;;25.10;90.10;;;;;;5024274;28;20790;-57
2023/06/20 09:36:46;;;;;;;9.77;5.37;;;25.20;91.30;;;;;;5022629;28;20469;-54
2023/06/20 09:39:15;;;;;;;7.30;5.43;;;25.40;85.00;;;;;;5028211;28;21205;-56
2023/06/20 09:41:44;;;;;;;8.67;5.07;;;25.60;66.90;;;;;;5024132;28;20229;-58
2023/06/20 09:44:10;;;;;;;11.17;5.50;;;25.70;65.30;;;;;;5024466;28;20426;-57
2023/06/20 09:46:36;;;;;;;10.10;4.80;;;25.90;67.80;;;;;;5020357;28;20452;-57
2023/06/20 09:49:04;;;;;;;7.57;4.60;;;26.00;61.30;;;;;;5019029;28;20245;-54
2023/06/20 09:51:37;;;;;;;4.70;4.20;;;26.20;56.50;;;;;;5024833;28;20228;-57
2023/06/20 09:54:07;;;;;;;10.83;5.43;;;26.40;54.50;;;;;;5020282;28;20436;-55
2023/06/20 09:56:50;;;;;;;18.40;5.63;;;26.50;51.10;;;;;;5022050;28;20454;-55
2023/06/20 09:59:16;;;;;;;7.13;5.13;;;26.50;50.20;;;;;;5025781;28;20422;-56
2023/06/20 10:01:42;;;;;;;12.40;5.73;;;26.60;52.00;;;;;;5025275;28;20421;-56
2023/06/20 10:04:09;;;;;;;5.80;4.83;;;26.70;52.50;;;;;;5023735;28;20441;-57
2023/06/20 10:06:37;;;;;;;10.00;5.10;;;26.80;53.00;;;;;;5028018;28;20525;-57
2023/06/20 10:09:05;;;;;;;8.10;4.27;;;26.90;53.20;;;;;;5024463;28;20429;-56
2023/06/20 10:11:31;;;;;;;6.63;4.47;;;26.90;49.80;;;;;;5026514;28;20457;-53
2023/06/20 10:13:57;;;;;;;7.40;4.43;;;27.00;49.60;;;;;;5022966;28;20467;-56
2023/06/20 10:16:28;;;;;;;8.13;4.70;;;27.00;45.90;;;;;;5025221;28;20238;-56
2023/06/20 10:18:53;;;;;;;12.70;4.50;;;27.00;46.00;;;;;;5026824;28;20434;-58
2023/06/20 10:21:58;;;;;;;8.50;4.27;;;27.20;46.40;;;;;;5023850;28;20168;-55
2023/06/20 10:24:28;;;;;;;14.07;5.50;;;27.30;46.60;;;;;;5023600;28;20175;-55
2023/06/20 10:26:59;;;;;;;10.97;5.17;;;27.50;45.80;;;;;;5027253;28;20192;-57
2023/06/20 10:29:25;;;;;;;13.77;5.07;;;27.60;46.00;;;;;;5020548;28;20183;-57
2023/06/20 10:31:55;;;;;;;10.40;4.80;;;27.80;44.90;;;;;;5015615;28;20547;-55
2023/06/20 10:34:29;;;;;;;10.43;5.00;;;27.90;44.40;;;;;;5019522;28;20657;-55
2023/06/20 10:37:27;;;;;;;10.03;4.90;;;28.00;44.00;;;;;;5011501;28;20218;-56
2023/06/20 10:39:57;;;;;;;12.23;5.40;;;28.10;42.70;;;;;;5008611;28;20888;-56
2023/06/20 10:42:49;;;;;;;12.93;5.70;;;28.10;42.70;;;;;;5005018;28;20682;-55
2023/06/20 10:45:29;;;;;;;11.77;5.70;;;28.10;43.70;;;;;;5021320;28;20435;-55
2023/06/20 10:47:56;;;;;;;8.70;4.80;;;28.20;43.40;;;;;;5026265;28;20175;-55
2023/06/20 10:50:22;;;;;;;12.50;5.30;;;28.30;43.00;;;;;;5019766;28;20191;-57
2023/06/20 10:52:48;;;;;;;11.85;4.30;;;28.30;41.80;;;;;;5027402;28;20538;-53
2023/06/20 10:55:26;;;;;;;7.07;4.10;;;28.30;41.50;;;;;;5018369;28;20182;-52
2023/06/20 10:57:53;;;;;;;12.43;5.77;;;28.20;42.20;;;;;;5024152;28;20293;-56
2023/06/20 11:00:20;;;;;;;8.13;4.75;;;28.20;42.10;;;;;;5015062;28;20207;-56
2023/06/20 11:02:47;;;;;;;9.87;4.90;;;28.20;43.20;;;;;;5017540;28;20250;-54
2023/06/20 11:05:13;;;;;;;8.83;4.87;;;28.40;43.60;;;;;;5017403;28;20172;-57
2023/06/20 11:07:59;;;;;;;9.10;4.50;;;28.50;43.50;;;;;;5008785;28;20174;-57
2023/06/20 11:10:30;;;;;;;10.38;4.50;;;28.60;42.70;;;;;;5021398;28;20597;-56
2023/06/20 11:12:57;;;;;;;14.53;5.00;;;28.70;42.90;;;;;;5017382;28;20283;-56
2023/06/20 11:15:32;;;;;;;6.43;4.70;;;28.90;43.10;;;;;;5019968;28;20282;-54
2023/06/20 11:18:01;;;;;;;10.13;4.40;;;29.00;43.10;;;;;;5024406;28;20207;-53
2023/06/20 11:20:27;;;;;;;7.00;4.60;;;29.10;42.20;;;;;;5015687;28;20176;-57
2023/06/20 11:22:54;;;;;;;16.95;4.90;;;29.10;41.30;;;;;;5022415;28;20163;-59
2023/06/20 11:25:24;;;;;;;12.90;5.18;;;29.10;41.40;;;;;;5022299;28;20182;-56
2023/06/20 11:27:50;;;;;;;7.75;4.75;;;29.20;42.00;;;;;;5017132;28;20168;-58
2023/06/20 11:30:16;;;;;;;12.95;4.55;;;29.30;41.80;;;;;;5020428;28;20519;-54
2023/06/20 11:33:13;;;;;;;10.93;5.18;;;29.50;42.60;;;;;;5020809;28;20632;-57
2023/06/20 11:35:42;;;;;;;12.27;4.30;;;29.70;43.40;;;;;;5022143;28;20210;-56
2023/06/20 11:38:13;;;;;;;10.10;5.35;;;29.90;42.20;;;;;;5024050;28;20279;-56
2023/06/20 11:40:43;;;;;;;13.80;4.95;;;30.10;41.40;;;;;;5021048;28;20776;-58
2023/06/20 11:43:26;;;;;;;12.32;4.90;;;30.20;39.30;;;;;;5022513;28;20168;-59
2023/06/20 11:46:00;;;;;;;16.40;5.10;;;30.20;41.60;;;;;;5021727;28;20202;-58
2023/06/20 11:48:27;;;;;;;8.50;4.65;;;30.40;42.30;;;;;;5021849;28;20192;-56
2023/06/20 11:51:00;;;;;;;9.82;4.78;;;30.60;42.00;;;;;;5017928;28;20307;-57
2023/06/20 11:53:31;;;;;;;9.88;4.45;;;30.70;42.20;;;;;;5022842;28;20274;-59
2023/06/20 11:55:59;;;;;;;8.80;5.07;;;30.90;42.40;;;;;;5017416;28;20219;-57
2023/06/20 11:58:26;;;;;;;9.93;4.65;;;31.10;41.80;;;;;;5019698;28;20182;-57
2023/06/20 12:01:13;;;;;;;11.80;5.30;;;31.20;42.00;;;;;;5020578;28;20581;-55
2023/06/20 12:03:41;;;;;;;10.32;5.15;;;31.40;42.00;;;;;;5026045;28;20168;-58
2023/06/20 12:06:37;;;;;;;13.38;5.22;;;31.50;41.30;;;;;;5025158;28;20195;-58
2023/06/20 12:09:03;;;;;;;7.53;4.50;;;31.60;39.10;;;;;;5025795;28;20191;-56
2023/06/20 12:11:29;;;;;;;9.38;4.75;;;31.60;40.10;;;;;;5022453;28;20182;-57
2023/06/20 12:13:56;;;;;;;6.93;4.10;;;31.70;42.10;;;;;;5029237;28;20527;-56
2023/06/20 12:16:23;;;;;;;12.80;5.03;;;31.80;41.50;;;;;;5025339;28;20242;-57
2023/06/20 12:18:51;;;;;;;7.60;4.38;;;32.00;41.40;;;;;;5028260;28;20233;-57
2023/06/20 12:21:17;;;;;;;14.10;4.82;;;32.10;38.70;;;;;;5029937;28;20183;-55
2023/06/20 12:23:42;;;;;;;14.55;4.53;;;32.00;37.80;;;;;;5021772;28;20204;-59
2023/06/20 12:26:08;;;;;;;12.00;4.22;;;31.90;37.70;;;;;;5017395;28;20204;-59
2023/06/20 12:28:36;;;;;;;12.77;4.72;;;31.90;38.20;;;;;;5021528;28;20199;-57
2023/06/20 12:31:03;;;;;;;8.20;4.72;;;32.00;39.00;;;;;;5021549;28;20176;-56
2023/06/20 12:33:29;;;;;;;10.43;4.70;;;32.10;39.70;;;;;;5020687;28;20185;-57
2023/06/20 12:35:55;;;;;;;11.23;4.65;;;32.20;39.90;;;;;;5013933;28;20219;-59
2023/06/20 12:38:20;;;;;;;8.43;4.80;;;32.40;39.90;;;;;;5017904;28;22155;-59
2023/06/20 12:40:46;;;;;;;8.07;4.20;;;32.50;38.10;;;;;;5014164;28;20180;-57
2023/06/20 12:43:11;;;;;;;8.38;4.50;;;32.50;37.70;;;;;;5022641;28;20286;-59